createdAt,value
2019-03-03T00:00:34.902Z,9.73
2019-03-03T00:01:34.920Z,9.72
2019-03-03T00:02:34.940Z,9.73
2019-03-03T00:03:34.916Z,9.73
2019-03-03T00:04:34.914Z,9.73
2019-03-03T00:05:34.905Z,9.72
2019-03-03T00:06:34.889Z,9.72
2019-03-03T00:07:34.894Z,9.72
2019-03-03T00:08:34.885Z,9.72
2019-03-03T00:09:34.875Z,9.71
2019-03-03T00:10:34.862Z,9.68
2019-03-03T00:11:34.885Z,9.71
2019-03-03T00:12:34.885Z,9.68
2019-03-03T00:13:34.907Z,9.71
2019-03-03T00:14:34.885Z,9.7
2019-03-03T00:15:34.850Z,9.68
2019-03-03T00:16:34.903Z,9.67
2019-03-03T00:17:34.868Z,9.66
2019-03-03T00:18:34.870Z,9.66
2019-03-03T00:19:34.869Z,9.66
2019-03-03T00:20:34.868Z,9.66
2019-03-03T00:21:34.866Z,9.66
2019-03-03T00:22:34.887Z,9.67
2019-03-03T00:23:34.880Z,9.67
2019-03-03T00:24:34.861Z,9.66
2019-03-03T00:25:34.888Z,9.66
2019-03-03T00:26:35.142Z,9.66
2019-03-03T00:27:34.934Z,9.66
2019-03-03T00:28:34.870Z,9.66
2019-03-03T00:29:34.873Z,9.66
2019-03-03T00:30:34.853Z,9.66
2019-03-03T00:31:34.883Z,9.69
2019-03-03T00:32:34.898Z,9.68
2019-03-03T00:33:34.867Z,9.65
2019-03-03T00:34:34.851Z,9.65
2019-03-03T00:35:34.865Z,9.64
2019-03-03T00:36:34.896Z,9.65
2019-03-03T00:37:34.832Z,9.65
2019-03-03T00:38:34.842Z,9.63
2019-03-03T00:39:34.830Z,9.65
2019-03-03T00:40:34.852Z,9.65
2019-03-03T00:41:34.823Z,9.65
2019-03-03T00:42:34.843Z,9.66
2019-03-03T00:43:34.903Z,9.65
2019-03-03T00:44:34.854Z,9.66
2019-03-03T00:45:34.850Z,9.66
2019-03-03T00:46:34.835Z,9.65
2019-03-03T00:47:34.821Z,9.66
2019-03-03T00:48:34.864Z,9.66
2019-03-03T00:49:34.838Z,9.68
2019-03-03T00:50:34.818Z,9.66
2019-03-03T00:51:34.824Z,9.66
2019-03-03T00:52:34.805Z,9.69
2019-03-03T00:53:34.837Z,9.65
2019-03-03T00:54:34.800Z,9.66
2019-03-03T00:55:34.835Z,9.66
2019-03-03T00:56:34.813Z,9.67
2019-03-03T00:57:34.798Z,9.67
2019-03-03T00:58:34.832Z,9.67
2019-03-03T00:59:34.802Z,9.66
2019-03-03T01:00:34.804Z,9.65
2019-03-03T01:01:34.825Z,9.66
2019-03-03T01:02:34.811Z,9.65
2019-03-03T01:03:34.835Z,9.65
2019-03-03T01:04:34.819Z,9.63
2019-03-03T01:05:34.815Z,9.64
2019-03-03T01:06:34.803Z,9.63
2019-03-03T01:07:34.808Z,9.62
2019-03-03T01:08:34.793Z,9.63
2019-03-03T01:09:35.127Z,9.64
2019-03-03T01:10:34.820Z,9.61
2019-03-03T01:11:34.812Z,9.61
2019-03-03T01:12:34.791Z,9.61
2019-03-03T01:13:34.798Z,9.61
2019-03-03T01:14:34.792Z,9.6
2019-03-03T01:15:34.812Z,9.6
2019-03-03T01:16:34.817Z,9.61
2019-03-03T01:17:34.868Z,9.6
2019-03-03T01:18:34.802Z,9.61
2019-03-03T01:19:34.781Z,9.61
2019-03-03T01:20:34.774Z,9.63
2019-03-03T01:21:34.776Z,9.63
2019-03-03T01:22:34.778Z,9.6
2019-03-03T01:23:34.777Z,9.59
2019-03-03T01:24:34.780Z,9.59
2019-03-03T01:25:34.762Z,9.59
2019-03-03T01:26:34.762Z,9.59
2019-03-03T01:27:34.765Z,9.58
2019-03-03T01:28:34.793Z,9.58
2019-03-03T01:29:34.799Z,9.59
2019-03-03T01:30:34.787Z,9.59
2019-03-03T01:31:34.915Z,9.59
2019-03-03T01:32:34.778Z,9.6
2019-03-03T01:33:34.803Z,9.59
2019-03-03T01:34:34.772Z,9.59
2019-03-03T01:35:34.811Z,9.59
2019-03-03T01:36:34.802Z,9.58
2019-03-03T01:37:34.752Z,9.59
2019-03-03T01:38:34.757Z,9.6
2019-03-03T01:39:34.765Z,9.6
2019-03-03T01:40:34.754Z,9.59
2019-03-03T01:41:34.739Z,9.6
2019-03-03T01:42:34.749Z,9.59
2019-03-03T01:43:34.750Z,9.6
2019-03-03T01:44:34.743Z,9.6
2019-03-03T01:45:34.738Z,9.59
2019-03-03T01:46:34.773Z,9.6
2019-03-03T01:47:34.736Z,9.6
2019-03-03T01:48:34.780Z,9.59
2019-03-03T01:49:34.723Z,9.6
2019-03-03T01:50:34.739Z,9.6
2019-03-03T01:51:34.736Z,9.59
2019-03-03T01:52:34.719Z,9.6
2019-03-03T01:53:34.922Z,9.59
2019-03-03T01:54:34.795Z,9.61
2019-03-03T01:55:34.771Z,9.6
2019-03-03T01:56:34.774Z,9.6
2019-03-03T01:57:34.697Z,9.59
2019-03-03T01:58:34.719Z,9.6
2019-03-03T01:59:34.745Z,9.59
2019-03-03T02:00:34.723Z,9.59
2019-03-03T02:01:34.753Z,9.59
2019-03-03T02:02:34.775Z,9.59
2019-03-03T02:03:34.694Z,9.57
2019-03-03T02:04:34.719Z,9.58
2019-03-03T02:05:34.706Z,9.59
2019-03-03T02:06:34.723Z,9.58
2019-03-03T02:07:34.721Z,9.58
2019-03-03T02:08:34.711Z,9.55
2019-03-03T02:09:34.708Z,9.58
2019-03-03T02:10:34.693Z,9.58
2019-03-03T02:11:34.699Z,9.57
2019-03-03T02:12:34.750Z,9.58
2019-03-03T02:13:34.744Z,9.56
2019-03-03T02:14:34.725Z,9.55
2019-03-03T02:15:34.728Z,9.57
2019-03-03T02:16:34.703Z,9.59
2019-03-03T02:17:34.709Z,9.58
2019-03-03T02:18:34.686Z,9.58
2019-03-03T02:19:34.692Z,9.58
2019-03-03T02:20:34.711Z,9.58
2019-03-03T02:21:34.673Z,9.55
2019-03-03T02:22:34.710Z,9.58
2019-03-03T02:23:34.874Z,9.57
2019-03-03T02:24:34.831Z,9.56
2019-03-03T02:25:34.721Z,9.58
2019-03-03T02:26:34.712Z,9.56
2019-03-03T02:27:34.688Z,9.55
2019-03-03T02:28:34.681Z,9.55
2019-03-03T02:29:34.692Z,9.55
2019-03-03T02:30:34.722Z,9.57
2019-03-03T02:31:34.679Z,9.55
2019-03-03T02:32:34.725Z,9.53
2019-03-03T02:33:34.684Z,9.54
2019-03-03T02:34:34.710Z,9.53
2019-03-03T02:35:34.686Z,9.55
2019-03-03T02:36:34.739Z,9.54
2019-03-03T02:37:34.708Z,9.52
2019-03-03T02:38:34.656Z,9.53
2019-03-03T02:39:34.704Z,9.53
2019-03-03T02:40:34.703Z,9.53
2019-03-03T02:41:34.678Z,9.52
2019-03-03T02:42:34.670Z,9.52
2019-03-03T02:43:34.668Z,9.51
2019-03-03T02:44:34.671Z,9.47
2019-03-03T02:45:34.649Z,9.48
2019-03-03T02:46:35.920Z,9.49
2019-03-03T02:47:34.678Z,9.49
2019-03-03T02:48:34.677Z,9.49
2019-03-03T02:49:34.751Z,9.5
2019-03-03T02:50:34.699Z,9.48
2019-03-03T02:51:34.682Z,9.51
2019-03-03T02:52:34.686Z,9.48
2019-03-03T02:53:34.728Z,9.48
2019-03-03T02:54:34.691Z,9.47
2019-03-03T02:55:34.685Z,9.48
2019-03-03T02:56:34.676Z,9.48
2019-03-03T02:57:34.651Z,9.47
2019-03-03T02:58:34.655Z,9.49
2019-03-03T02:59:34.663Z,9.47
2019-03-03T03:00:34.962Z,9.46
2019-03-03T03:01:34.674Z,9.47
2019-03-03T03:02:34.650Z,9.46
2019-03-03T03:03:34.665Z,9.47
2019-03-03T03:04:34.643Z,9.42
2019-03-03T03:05:34.669Z,9.43
2019-03-03T03:06:34.723Z,9.45
2019-03-03T03:07:34.944Z,9.43
2019-03-03T03:08:34.731Z,9.42
2019-03-03T03:09:34.684Z,9.43
2019-03-03T03:10:34.665Z,9.41
2019-03-03T03:11:34.648Z,9.42
2019-03-03T03:12:34.661Z,9.4
2019-03-03T03:13:34.652Z,9.41
2019-03-03T03:14:34.647Z,9.41
2019-03-03T03:15:34.646Z,9.39
2019-03-03T03:16:34.673Z,9.4
2019-03-03T03:17:34.643Z,9.39
2019-03-03T03:18:34.611Z,9.39
2019-03-03T03:19:34.648Z,9.38
2019-03-03T03:20:34.662Z,9.36
2019-03-03T03:21:34.613Z,9.38
2019-03-03T03:22:34.653Z,9.37
2019-03-03T03:23:34.724Z,9.36
2019-03-03T03:24:34.603Z,9.37
2019-03-03T03:25:34.635Z,9.35
2019-03-03T03:26:34.670Z,9.34
2019-03-03T03:27:34.649Z,9.34
2019-03-03T03:28:34.614Z,9.33
2019-03-03T03:29:35.110Z,9.33
2019-03-03T03:30:34.698Z,9.34
2019-03-03T03:31:34.735Z,9.33
2019-03-03T03:32:34.694Z,9.33
2019-03-03T03:33:34.685Z,9.33
2019-03-03T03:34:34.726Z,9.33
2019-03-03T03:35:34.622Z,9.34
2019-03-03T03:36:37.399Z,9.34
2019-03-03T03:37:34.635Z,9.34
2019-03-03T03:38:34.600Z,9.33
2019-03-03T03:39:34.615Z,9.34
2019-03-03T03:40:34.611Z,9.34
2019-03-03T03:41:34.616Z,9.35
2019-03-03T03:42:34.626Z,9.37
2019-03-03T03:43:34.659Z,9.35
2019-03-03T03:44:34.588Z,9.35
2019-03-03T03:45:34.626Z,9.35
2019-03-03T03:46:34.601Z,9.34
2019-03-03T03:47:34.607Z,9.35
2019-03-03T03:48:34.592Z,9.33
2019-03-03T03:49:34.630Z,9.31
2019-03-03T03:50:34.624Z,9.34
2019-03-03T03:51:34.663Z,9.34
2019-03-03T03:52:34.678Z,9.34
2019-03-03T03:53:34.680Z,9.35
2019-03-03T03:54:34.618Z,9.35
2019-03-03T03:55:34.612Z,9.37
2019-03-03T03:56:34.608Z,9.35
2019-03-03T03:57:34.562Z,9.35
2019-03-03T03:58:34.616Z,9.38
2019-03-03T03:59:34.652Z,9.36
2019-03-03T04:00:34.594Z,9.39
2019-03-03T04:01:34.697Z,9.4
2019-03-03T04:02:34.623Z,9.4
2019-03-03T04:03:34.601Z,9.39
2019-03-03T04:04:34.575Z,9.4
2019-03-03T04:05:34.575Z,9.4
2019-03-03T04:06:34.588Z,9.38
2019-03-03T04:07:34.553Z,9.4
2019-03-03T04:08:34.583Z,9.41
2019-03-03T04:09:34.572Z,9.4
2019-03-03T04:10:34.544Z,9.4
2019-03-03T04:11:34.571Z,9.41
2019-03-03T04:12:34.605Z,9.41
2019-03-03T04:13:34.691Z,9.41
2019-03-03T04:14:35.271Z,9.4
2019-03-03T04:15:34.522Z,9.41
2019-03-03T04:16:34.570Z,9.41
2019-03-03T04:17:34.551Z,9.41
2019-03-03T04:18:34.585Z,9.41
2019-03-03T04:19:34.575Z,9.4
2019-03-03T04:20:34.544Z,9.43
2019-03-03T04:21:34.573Z,9.41
2019-03-03T04:22:34.551Z,9.41
2019-03-03T04:23:34.529Z,9.41
2019-03-03T04:24:34.564Z,9.41
2019-03-03T04:25:34.533Z,9.43
2019-03-03T04:26:34.535Z,9.44
2019-03-03T04:27:34.535Z,9.42
2019-03-03T04:28:34.571Z,9.42
2019-03-03T04:29:34.530Z,9.42
2019-03-03T04:30:34.532Z,9.42
2019-03-03T04:31:34.558Z,9.43
2019-03-03T04:32:34.506Z,9.41
2019-03-03T04:33:34.493Z,9.4
2019-03-03T04:34:34.497Z,9.41
2019-03-03T04:35:34.511Z,9.41
2019-03-03T04:36:34.530Z,9.41
2019-03-03T04:37:34.520Z,9.41
2019-03-03T04:38:34.533Z,9.41
2019-03-03T04:39:34.507Z,9.41
2019-03-03T04:40:34.498Z,9.41
2019-03-03T04:41:34.490Z,9.4
2019-03-03T04:42:34.504Z,9.41
2019-03-03T04:43:34.515Z,9.41
2019-03-03T04:44:34.506Z,9.41
2019-03-03T04:45:34.497Z,9.41
2019-03-03T04:46:34.533Z,9.41
2019-03-03T04:47:34.513Z,9.41
2019-03-03T04:48:34.554Z,9.41
2019-03-03T04:49:34.581Z,9.41
2019-03-03T04:50:34.501Z,9.41
2019-03-03T04:51:34.503Z,9.41
2019-03-03T04:52:34.492Z,9.42
2019-03-03T04:53:34.524Z,9.41
2019-03-03T04:54:34.498Z,9.42
2019-03-03T04:55:34.514Z,9.43
2019-03-03T04:56:34.470Z,9.42
2019-03-03T04:57:34.526Z,9.45
2019-03-03T04:58:34.612Z,9.43
2019-03-03T04:59:34.565Z,9.42
2019-03-03T05:00:34.505Z,9.42
2019-03-03T05:01:34.514Z,9.45
2019-03-03T05:02:34.484Z,9.46
2019-03-03T05:03:34.491Z,9.46
2019-03-03T05:04:34.517Z,9.46
2019-03-03T05:05:34.489Z,9.44
2019-03-03T05:06:34.526Z,9.43
2019-03-03T05:07:34.541Z,9.43
2019-03-03T05:08:34.520Z,9.45
2019-03-03T05:09:34.489Z,9.45
2019-03-03T05:10:34.481Z,9.45
2019-03-03T05:11:34.467Z,9.46
2019-03-03T05:12:34.471Z,9.46
2019-03-03T05:13:34.559Z,9.44
2019-03-03T05:14:34.498Z,9.46
2019-03-03T05:15:34.478Z,9.46
2019-03-03T05:16:34.510Z,9.43
2019-03-03T05:17:34.465Z,9.46
2019-03-03T05:18:34.468Z,9.44
2019-03-03T05:19:34.449Z,9.42
2019-03-03T05:20:34.467Z,9.45
2019-03-03T05:21:34.774Z,9.45
2019-03-03T05:22:34.429Z,9.43
2019-03-03T05:23:34.457Z,9.45
2019-03-03T05:24:34.955Z,9.43
2019-03-03T05:25:34.471Z,9.45
2019-03-03T05:26:34.466Z,9.43
2019-03-03T05:27:34.456Z,9.45
2019-03-03T05:28:34.456Z,9.47
2019-03-03T05:29:34.457Z,9.47
2019-03-03T05:30:34.437Z,9.47
2019-03-03T05:31:34.439Z,9.48
2019-03-03T05:32:34.446Z,9.48
2019-03-03T05:33:34.430Z,9.51
2019-03-03T05:34:34.439Z,9.49
2019-03-03T05:35:34.454Z,9.52
2019-03-03T05:36:34.445Z,9.52
2019-03-03T05:37:34.454Z,9.51
2019-03-03T05:38:34.505Z,9.51
2019-03-03T05:39:34.438Z,9.51
2019-03-03T05:40:34.445Z,9.53
2019-03-03T05:41:34.425Z,9.52
2019-03-03T05:42:34.433Z,9.52
2019-03-03T05:43:34.622Z,9.53
2019-03-03T05:44:34.414Z,9.53
2019-03-03T05:45:34.398Z,9.52
2019-03-03T05:46:34.403Z,9.53
2019-03-03T05:47:34.569Z,9.54
2019-03-03T05:48:34.448Z,9.54
2019-03-03T05:49:34.390Z,9.54
2019-03-03T05:50:34.404Z,9.54
2019-03-03T05:51:34.394Z,9.56
2019-03-03T05:52:34.432Z,9.55
2019-03-03T05:53:34.407Z,9.53
2019-03-03T05:54:34.392Z,9.54
2019-03-03T05:55:34.412Z,9.54
2019-03-03T05:56:34.384Z,9.54
2019-03-03T05:57:34.407Z,9.53
2019-03-03T05:58:34.384Z,9.56
2019-03-03T05:59:34.400Z,9.52
2019-03-03T06:00:34.459Z,9.53
2019-03-03T06:01:34.617Z,9.53
2019-03-03T06:02:34.394Z,9.51
2019-03-03T06:03:34.383Z,9.53
2019-03-03T06:04:34.407Z,9.49
2019-03-03T06:05:34.466Z,9.49
2019-03-03T06:06:34.458Z,9.52
2019-03-03T06:07:34.376Z,9.48
2019-03-03T06:08:34.378Z,9.51
2019-03-03T06:09:34.372Z,9.51
2019-03-03T06:10:34.368Z,9.49
2019-03-03T06:11:34.379Z,9.51
2019-03-03T06:12:34.382Z,9.49
2019-03-03T06:13:34.396Z,9.51
2019-03-03T06:14:34.402Z,9.51
2019-03-03T06:15:34.430Z,9.53
2019-03-03T06:16:34.373Z,9.53
2019-03-03T06:17:34.366Z,9.54
2019-03-03T06:18:34.400Z,9.53
2019-03-03T06:19:34.382Z,9.53
2019-03-03T06:20:34.352Z,9.53
2019-03-03T06:21:34.363Z,9.54
2019-03-03T06:22:34.360Z,9.53
2019-03-03T06:23:34.359Z,9.54
2019-03-03T06:24:34.363Z,9.54
2019-03-03T06:25:34.375Z,9.55
2019-03-03T06:26:34.362Z,9.55
2019-03-03T06:27:34.417Z,9.55
2019-03-03T06:28:34.363Z,9.55
2019-03-03T06:29:34.368Z,9.57
2019-03-03T06:30:34.367Z,9.55
2019-03-03T06:31:34.335Z,9.58
2019-03-03T06:32:34.353Z,9.57
2019-03-03T06:33:34.405Z,9.56
2019-03-03T06:34:34.345Z,9.58
2019-03-03T06:35:34.344Z,9.56
2019-03-03T06:36:34.358Z,9.56
2019-03-03T06:37:34.343Z,9.59
2019-03-03T06:38:34.351Z,9.56
2019-03-03T06:39:34.406Z,9.59
2019-03-03T06:40:34.342Z,9.62
2019-03-03T06:41:34.329Z,9.61
2019-03-03T06:42:34.361Z,9.63
2019-03-03T06:43:34.332Z,9.63
2019-03-03T06:44:34.346Z,9.64
2019-03-03T06:45:34.345Z,9.61
2019-03-03T06:46:34.330Z,9.61
2019-03-03T06:47:34.336Z,9.65
2019-03-03T06:48:34.321Z,9.62
2019-03-03T06:49:34.452Z,9.63
2019-03-03T06:50:34.360Z,9.64
2019-03-03T06:51:34.418Z,9.65
2019-03-03T06:52:34.346Z,9.65
2019-03-03T06:53:34.322Z,9.66
2019-03-03T06:54:34.336Z,9.67
2019-03-03T06:55:34.331Z,9.67
2019-03-03T06:56:34.331Z,9.68
2019-03-03T06:57:34.331Z,9.69
2019-03-03T06:58:34.292Z,9.71
2019-03-03T06:59:34.344Z,9.71
2019-03-03T07:00:34.298Z,9.7
2019-03-03T07:01:34.328Z,9.71
2019-03-03T07:02:34.298Z,9.71
2019-03-03T07:03:34.316Z,9.71
2019-03-03T07:04:34.296Z,9.69
2019-03-03T07:05:34.300Z,9.71
2019-03-03T07:06:34.314Z,9.72
2019-03-03T07:07:34.301Z,9.72
2019-03-03T07:08:34.347Z,9.73
2019-03-03T07:09:34.325Z,9.72
2019-03-03T07:10:34.319Z,9.74
2019-03-03T07:11:34.374Z,9.73
2019-03-03T07:12:34.300Z,9.73
2019-03-03T07:13:34.318Z,9.72
2019-03-03T07:14:34.291Z,9.72
2019-03-03T07:15:34.297Z,9.73
2019-03-03T07:16:34.285Z,9.74
2019-03-03T07:17:34.306Z,9.74
2019-03-03T07:18:34.286Z,9.76
2019-03-03T07:19:34.280Z,9.74
2019-03-03T07:20:34.298Z,9.77
2019-03-03T07:21:34.297Z,9.76
2019-03-03T07:22:34.272Z,9.75
2019-03-03T07:23:34.289Z,9.76
2019-03-03T07:24:34.280Z,9.74
2019-03-03T07:25:34.266Z,9.77
2019-03-03T07:26:34.301Z,9.77
2019-03-03T07:27:34.310Z,9.77
2019-03-03T07:28:34.272Z,9.77
2019-03-03T07:29:34.270Z,9.79
2019-03-03T07:30:34.271Z,9.79
2019-03-03T07:31:34.306Z,9.81
2019-03-03T07:32:34.328Z,9.79
2019-03-03T07:33:34.511Z,9.79
2019-03-03T07:34:34.277Z,9.81
2019-03-03T07:35:34.285Z,9.8
2019-03-03T07:36:34.329Z,9.83
2019-03-03T07:37:34.240Z,9.82
2019-03-03T07:38:34.270Z,9.85
2019-03-03T07:39:34.271Z,9.85
2019-03-03T07:40:34.248Z,9.87
2019-03-03T07:41:34.292Z,9.88
2019-03-03T07:42:34.254Z,9.89
2019-03-03T07:43:34.248Z,9.9
2019-03-03T07:44:34.231Z,9.93
2019-03-03T07:45:34.252Z,9.92
2019-03-03T07:46:34.244Z,9.95
2019-03-03T07:47:34.241Z,9.96
2019-03-03T07:48:34.252Z,9.97
2019-03-03T07:49:34.243Z,9.98
2019-03-03T07:50:34.257Z,9.99
2019-03-03T07:51:34.264Z,10.01
2019-03-03T07:52:34.259Z,10.04
2019-03-03T07:53:34.246Z,10.05
2019-03-03T07:54:34.244Z,10.04
2019-03-03T07:55:34.316Z,10.07
2019-03-03T07:56:34.239Z,10.1
2019-03-03T07:57:34.265Z,10.09
2019-03-03T07:58:34.249Z,10.13
2019-03-03T07:59:34.226Z,10.13
2019-03-03T08:00:34.264Z,10.14
2019-03-03T08:01:34.246Z,10.15
2019-03-03T08:02:34.258Z,10.19
2019-03-03T08:03:34.233Z,10.2
2019-03-03T08:04:34.237Z,10.2
2019-03-03T08:05:34.244Z,10.21
2019-03-03T08:06:34.278Z,10.23
2019-03-03T08:07:34.224Z,10.22
2019-03-03T08:08:34.224Z,10.26
2019-03-03T08:09:34.212Z,10.25
2019-03-03T08:10:34.228Z,10.28
2019-03-03T08:11:34.201Z,10.3
2019-03-03T08:12:34.220Z,10.33
2019-03-03T08:13:34.295Z,10.34
2019-03-03T08:14:34.205Z,10.34
2019-03-03T08:15:34.266Z,10.33
2019-03-03T08:16:34.209Z,10.35
2019-03-03T08:17:34.261Z,10.38
2019-03-03T08:18:34.202Z,10.39
2019-03-03T08:19:34.218Z,10.37
2019-03-03T08:20:34.226Z,10.39
2019-03-03T08:21:34.186Z,10.4
2019-03-03T08:22:34.351Z,10.42
2019-03-03T08:23:34.210Z,10.45
2019-03-03T08:24:34.183Z,10.45
2019-03-03T08:25:34.222Z,10.46
2019-03-03T08:26:34.208Z,10.46
2019-03-03T08:27:34.226Z,10.45
2019-03-03T08:28:34.241Z,10.48
2019-03-03T08:29:34.230Z,10.47
2019-03-03T08:30:34.264Z,10.48
2019-03-03T08:31:34.219Z,10.5
2019-03-03T08:32:34.271Z,10.5
2019-03-03T08:33:34.291Z,10.5
2019-03-03T08:34:34.204Z,10.51
2019-03-03T08:35:34.193Z,10.5
2019-03-03T08:36:34.246Z,10.51
2019-03-03T08:37:34.188Z,10.51
2019-03-03T08:38:34.241Z,10.5
2019-03-03T08:39:34.446Z,10.51
2019-03-03T08:40:34.176Z,10.51
2019-03-03T08:41:34.387Z,10.48
2019-03-03T08:42:34.192Z,10.49
2019-03-03T08:43:34.219Z,10.47
2019-03-03T08:44:34.216Z,10.5
2019-03-03T08:45:34.181Z,10.46
2019-03-03T08:46:34.379Z,10.47
2019-03-03T08:47:34.247Z,10.47
2019-03-03T08:48:34.173Z,10.47
2019-03-03T08:49:34.179Z,10.47
2019-03-03T08:50:34.159Z,10.46
2019-03-03T08:51:34.178Z,10.47
2019-03-03T08:52:34.169Z,10.48
2019-03-03T08:53:34.237Z,10.5
2019-03-03T08:54:34.215Z,10.52
2019-03-03T08:55:34.150Z,10.52
2019-03-03T08:56:34.148Z,10.53
2019-03-03T08:57:34.161Z,10.54
2019-03-03T08:58:34.172Z,10.55
2019-03-03T08:59:34.157Z,10.56
2019-03-03T09:00:34.151Z,10.54
2019-03-03T09:01:34.184Z,10.57
2019-03-03T09:02:34.176Z,10.54
2019-03-03T09:03:34.118Z,10.57
2019-03-03T09:04:34.162Z,10.54
2019-03-03T09:05:34.141Z,10.56
2019-03-03T09:06:34.143Z,10.55
2019-03-03T09:07:34.163Z,10.57
2019-03-03T09:08:34.145Z,10.57
2019-03-03T09:09:34.152Z,10.55
2019-03-03T09:10:34.129Z,10.57
2019-03-03T09:11:34.140Z,10.58
2019-03-03T09:12:34.386Z,10.59
2019-03-03T09:13:34.153Z,10.6
2019-03-03T09:14:34.170Z,10.64
2019-03-03T09:15:34.138Z,10.64
2019-03-03T09:16:34.181Z,10.64
2019-03-03T09:17:34.169Z,10.66
2019-03-03T09:18:34.218Z,10.67
2019-03-03T09:19:34.116Z,10.71
2019-03-03T09:20:34.106Z,10.69
2019-03-03T09:21:34.198Z,10.71
2019-03-03T09:22:34.119Z,10.71
2019-03-03T09:23:34.125Z,10.72
2019-03-03T09:24:34.098Z,10.72
2019-03-03T09:25:34.129Z,10.75
2019-03-03T09:26:34.127Z,10.75
2019-03-03T09:27:34.116Z,10.73
2019-03-03T09:28:34.367Z,10.76
2019-03-03T09:29:34.367Z,10.78
2019-03-03T09:30:34.098Z,10.77
2019-03-03T09:31:34.124Z,10.78
2019-03-03T09:32:34.141Z,10.77
2019-03-03T09:33:34.088Z,10.77
2019-03-03T09:34:34.107Z,10.78
2019-03-03T09:35:34.096Z,10.8
2019-03-03T09:36:34.096Z,10.79
2019-03-03T09:37:34.108Z,10.8
2019-03-03T09:38:34.100Z,10.8
2019-03-03T09:39:34.119Z,10.82
2019-03-03T09:40:34.162Z,10.82
2019-03-03T09:41:34.107Z,10.83
2019-03-03T09:42:34.106Z,10.84
2019-03-03T09:43:34.117Z,10.84
2019-03-03T09:44:34.144Z,10.84
2019-03-03T09:45:34.104Z,10.85
2019-03-03T09:46:34.105Z,10.85
2019-03-03T09:47:34.131Z,10.84
2019-03-03T09:48:34.054Z,10.84
2019-03-03T09:49:34.144Z,10.84
2019-03-03T09:50:34.137Z,10.84
2019-03-03T09:51:34.068Z,10.84
2019-03-03T09:52:34.068Z,10.87
2019-03-03T09:53:34.093Z,10.85
2019-03-03T09:54:34.076Z,10.84
2019-03-03T09:55:34.078Z,10.85
2019-03-03T09:56:34.113Z,10.87
2019-03-03T09:57:34.042Z,10.87
2019-03-03T09:58:34.048Z,10.86
2019-03-03T09:59:34.064Z,10.86
2019-03-03T10:00:34.093Z,10.87
2019-03-03T10:01:34.073Z,10.84
2019-03-03T10:02:34.066Z,10.84
2019-03-03T10:03:34.045Z,10.84
2019-03-03T10:04:34.038Z,10.84
2019-03-03T10:05:34.085Z,10.87
2019-03-03T10:06:34.310Z,10.85
2019-03-03T10:07:34.219Z,10.86
2019-03-03T10:08:34.047Z,10.87
2019-03-03T10:09:34.064Z,10.85
2019-03-03T10:10:34.093Z,10.88
2019-03-03T10:11:34.035Z,10.88
2019-03-03T10:12:34.075Z,10.87
2019-03-03T10:13:34.049Z,10.88
2019-03-03T10:14:34.057Z,10.89
2019-03-03T10:15:34.062Z,10.9
2019-03-03T10:16:34.137Z,10.91
2019-03-03T10:17:34.051Z,10.9
2019-03-03T10:18:34.115Z,10.9
2019-03-03T10:19:34.068Z,10.9
2019-03-03T10:20:34.106Z,10.91
2019-03-03T10:21:34.029Z,10.92
2019-03-03T10:22:34.053Z,10.91
2019-03-03T10:23:34.045Z,10.92
2019-03-03T10:24:34.050Z,10.93
2019-03-03T10:25:34.040Z,10.95
2019-03-03T10:26:35.378Z,10.95
2019-03-03T10:27:34.061Z,10.96
2019-03-03T10:28:34.067Z,10.93
2019-03-03T10:29:34.401Z,10.94
2019-03-03T10:30:34.064Z,10.96
2019-03-03T10:31:34.077Z,10.96
2019-03-03T10:32:34.051Z,10.96
2019-03-03T10:33:34.039Z,10.97
2019-03-03T10:34:34.060Z,10.97
2019-03-03T10:35:34.059Z,10.98
2019-03-03T10:36:34.025Z,11
2019-03-03T10:37:34.053Z,11
2019-03-03T10:38:36.675Z,10.98
2019-03-03T10:39:34.010Z,10.97
2019-03-03T10:40:34.028Z,10.98
2019-03-03T10:41:34.073Z,10.99
2019-03-03T10:42:34.013Z,11
2019-03-03T10:43:34.009Z,10.98
2019-03-03T10:44:34.076Z,10.98
2019-03-03T10:45:34.044Z,10.98
2019-03-03T10:46:34.044Z,10.98
2019-03-03T10:47:34.011Z,11
2019-03-03T10:48:33.995Z,11
2019-03-03T10:49:34.006Z,11.01
2019-03-03T10:50:34.057Z,11.01
2019-03-03T10:51:34.005Z,11.02
2019-03-03T10:52:34.071Z,11.02
2019-03-03T10:53:34.049Z,11.01
2019-03-03T10:54:33.989Z,11.02
2019-03-03T10:55:34.019Z,11.02
2019-03-03T10:56:34.002Z,11.03
2019-03-03T10:57:34.108Z,11.02
2019-03-03T10:58:33.989Z,11.02
2019-03-03T10:59:34.103Z,11.02
2019-03-03T11:00:33.984Z,11.02
2019-03-03T11:01:34.032Z,11.02
2019-03-03T11:02:34.005Z,11.01
2019-03-03T11:03:33.987Z,11.02
2019-03-03T11:04:34.006Z,11.01
2019-03-03T11:05:33.983Z,11.02
2019-03-03T11:06:33.992Z,11.02
2019-03-03T11:07:33.974Z,11.02
2019-03-03T11:08:33.986Z,11.03
2019-03-03T11:09:33.981Z,11.02
2019-03-03T11:10:33.994Z,11.04
2019-03-03T11:11:34.003Z,11.03
2019-03-03T11:12:34.092Z,11.02
2019-03-03T11:13:34.014Z,11.02
2019-03-03T11:14:33.972Z,11.03
2019-03-03T11:15:33.981Z,11.03
2019-03-03T11:16:33.979Z,11.03
2019-03-03T11:17:33.978Z,11.03
2019-03-03T11:18:33.968Z,11.03
2019-03-03T11:19:34.056Z,11.03
2019-03-03T11:20:33.985Z,11.05
2019-03-03T11:21:33.997Z,11.03
2019-03-03T11:22:34.055Z,11.02
2019-03-03T11:23:34.021Z,11.02
2019-03-03T11:24:33.971Z,11.02
2019-03-03T11:25:33.943Z,11.03
2019-03-03T11:26:33.968Z,11.02
2019-03-03T11:27:34.004Z,11.02
2019-03-03T11:28:33.976Z,11.03
2019-03-03T11:29:33.965Z,11.03
2019-03-03T11:30:33.977Z,11.03
2019-03-03T11:31:33.972Z,11.06
2019-03-03T11:32:33.967Z,11.03
2019-03-03T11:33:33.987Z,11.05
2019-03-03T11:34:33.996Z,11.08
2019-03-03T11:35:33.942Z,11.06
2019-03-03T11:36:33.994Z,11.08
2019-03-03T11:37:33.946Z,11.08
2019-03-03T11:38:33.937Z,11.11
2019-03-03T11:39:33.944Z,11.1
2019-03-03T11:40:33.955Z,11.1
2019-03-03T11:41:34.004Z,11.13
2019-03-03T11:42:33.976Z,11.12
2019-03-03T11:43:33.986Z,11.13
2019-03-03T11:44:34.013Z,11.14
2019-03-03T11:45:33.997Z,11.14
2019-03-03T11:46:33.982Z,11.15
2019-03-03T11:47:33.934Z,11.15
2019-03-03T11:48:33.964Z,11.15
2019-03-03T11:49:33.931Z,11.18
2019-03-03T11:50:33.924Z,11.19
2019-03-03T11:51:33.976Z,11.15
2019-03-03T11:52:34.063Z,11.19
2019-03-03T11:53:33.949Z,11.2
2019-03-03T11:54:33.940Z,11.2
2019-03-03T11:55:33.932Z,11.2
2019-03-03T11:56:33.946Z,11.21
2019-03-03T11:57:33.955Z,11.21
2019-03-03T11:58:33.917Z,11.21
2019-03-03T11:59:33.970Z,11.21
2019-03-03T12:00:33.923Z,11.22
2019-03-03T12:01:33.935Z,11.22
2019-03-03T12:02:33.915Z,11.24
2019-03-03T12:03:33.903Z,11.23
2019-03-03T12:04:33.974Z,11.22
2019-03-03T12:05:33.954Z,11.22
2019-03-03T12:06:33.961Z,11.21
2019-03-03T12:07:33.917Z,11.21
2019-03-03T12:08:33.897Z,11.24
2019-03-03T12:09:33.938Z,11.22
2019-03-03T12:10:34.503Z,11.22
2019-03-03T12:11:33.884Z,11.22
2019-03-03T12:12:33.899Z,11.24
2019-03-03T12:13:33.908Z,11.26
2019-03-03T12:14:33.898Z,11.27
2019-03-03T12:15:33.926Z,11.29
2019-03-03T12:16:33.911Z,11.32
2019-03-03T12:17:35.530Z,11.33
2019-03-03T12:18:34.289Z,11.37
2019-03-03T12:19:33.909Z,11.39
2019-03-03T12:20:33.882Z,11.43
2019-03-03T12:21:33.922Z,11.44
2019-03-03T12:22:33.901Z,11.46
2019-03-03T12:23:33.896Z,11.48
2019-03-03T12:24:33.892Z,11.53
2019-03-03T12:25:33.876Z,11.54
2019-03-03T12:26:33.914Z,11.58
2019-03-03T12:27:33.890Z,11.58
2019-03-03T12:28:33.917Z,11.58
2019-03-03T12:29:33.884Z,11.58
2019-03-03T12:30:33.886Z,11.58
2019-03-03T12:31:33.919Z,11.57
2019-03-03T12:32:33.873Z,11.58
2019-03-03T12:33:33.879Z,11.55
2019-03-03T12:34:33.943Z,11.58
2019-03-03T12:35:33.937Z,11.57
2019-03-03T12:36:33.887Z,11.57
2019-03-03T12:37:33.886Z,11.56
2019-03-03T12:38:33.871Z,11.57
2019-03-03T12:39:33.873Z,11.55
2019-03-03T12:40:33.965Z,11.57
2019-03-03T12:41:33.856Z,11.57
2019-03-03T12:42:33.895Z,11.58
2019-03-03T12:43:33.874Z,11.58
2019-03-03T12:44:33.916Z,11.55
2019-03-03T12:45:33.872Z,11.59
2019-03-03T12:46:33.864Z,11.59
2019-03-03T12:47:33.923Z,11.59
2019-03-03T12:48:33.881Z,11.62
2019-03-03T12:49:33.863Z,11.62
2019-03-03T12:50:33.840Z,11.63
2019-03-03T12:51:33.920Z,11.63
2019-03-03T12:52:33.948Z,11.63
2019-03-03T12:53:35.022Z,11.65
2019-03-03T12:54:33.904Z,11.65
2019-03-03T12:55:33.867Z,11.65
2019-03-03T12:56:33.884Z,11.64
2019-03-03T12:57:33.878Z,11.65
2019-03-03T12:58:33.849Z,11.68
2019-03-03T12:59:33.884Z,11.68
2019-03-03T13:00:33.863Z,11.66
2019-03-03T13:01:33.969Z,11.66
2019-03-03T13:02:33.897Z,11.66
2019-03-03T13:03:33.836Z,11.67
2019-03-03T13:04:33.851Z,11.68
2019-03-03T13:05:33.835Z,11.71
2019-03-03T13:06:33.852Z,11.69
2019-03-03T13:07:33.847Z,11.7
2019-03-03T13:08:33.868Z,11.7
2019-03-03T13:09:33.821Z,11.69
2019-03-03T13:10:33.813Z,11.69